^^
Lisbon, NH - Weather Station Historical Data
Daily Summary for May 23, 2021 Units:  English    Metric   Both
Daily Weekly Monthly Yearly
  High: Low: Average:
Temperature: 75 °F 44.1 °F 62.4 °F
Dew Point: 67 °F 40.7 °F 56.2 °F
Humidity: 100% 54.8% 82%
Wind Speed: 6.8mph 0mph 1.3mph
Wind Gust: 19mph - -
Wind- - SE
Pressure: 30.14 in 29.73 in -
Precipitation: 0.04 in    
 
 
Tabular Data for May 23, 2021
Time Temperature Dew Point Pressure Wind Wind Speed Wind Gust Humidity Rainfall Rate (Hourly) solar
00:04 64.1 °F 63.8 °F 29.89 in ENE 0.3 mph 3 mph 99% 0.00 in 0 W/m2
00:09 64.1 °F 63.8 °F 29.89 in Calm     99% 0.00 in 0 W/m2
00:14 64.1 °F 63.8 °F 29.89 in Calm     99% 0.00 in 0 W/m2
00:19 64.2 °F 63.9 °F 29.89 in Calm     99% 0.00 in 0 W/m2
00:24 64.3 °F 64 °F 29.89 in Calm     99% 0.00 in 0 W/m2
00:29 64.3 °F 64 °F 29.89 in Calm     99% 0.00 in 0 W/m2
00:34 64.3 °F 64 °F 29.88 in Calm     99% 0.00 in 0 W/m2
00:39 64.3 °F 64 °F 29.88 in Calm   1 mph 99% 0.00 in 0 W/m2
00:44 64.4 °F 64.2 °F 29.88 in Calm   1 mph 99.3% 0.00 in 0 W/m2
00:49 64.5 °F 64.5 °F 29.88 in Calm     100% 0.00 in 0 W/m2
00:54 64.4 °F 64.4 °F 29.88 in Calm     100% 0.00 in 0 W/m2
00:59 64.3 °F 64.3 °F 29.88 in Calm     100% 0.00 in 0 W/m2
01:04 64.3 °F 64.3 °F 29.87 in Calm     100% 0.00 in 0 W/m2
01:09 64.3 °F 64.3 °F 29.87 in Calm     100% 0.00 in 0 W/m2
01:14 64.3 °F 64.3 °F 29.87 in Calm     100% 0.00 in 0 W/m2
01:19 64.2 °F 64.2 °F 29.86 in Calm     100% 0.00 in 0 W/m2
01:24 64.1 °F 64.1 °F 29.86 in Calm     100% 0.00 in 0 W/m2
01:29 64.1 °F 64.1 °F 29.86 in Calm     100% 0.00 in 0 W/m2
01:34 64.1 °F 64.1 °F 29.85 in Calm     100% 0.00 in 0 W/m2
01:39 64.1 °F 64.1 °F 29.85 in Calm     100% 0.00 in 0 W/m2
01:44 64.1 °F 64.1 °F 29.85 in Calm     100% 0.00 in 0 W/m2
01:49 64 °F 64 °F 29.85 in Calm   1 mph 100% 0.00 in 0 W/m2
01:54 64 °F 64 °F 29.85 in SSW 0.3 mph 2 mph 100% 0.00 in 0 W/m2
01:59 64 °F 64 °F 29.85 in SW 1 mph 3 mph 100% 0.00 in 0 W/m2
02:04 64 °F 64 °F 29.85 in Calm   2 mph 100% 0.00 in 0 W/m2
02:09 63.8 °F 63.8 °F 29.85 in Calm     100% 0.00 in 0 W/m2
02:14 63.8 °F 63.8 °F 29.85 in WSW 0.2 mph 1 mph 100% 0.00 in 0 W/m2
02:19 63.7 °F 63.7 °F 29.84 in SW 0.2 mph 1 mph 100% 0.00 in 0 W/m2
02:24 63.7 °F 63.7 °F 29.84 in SW 0.2 mph 2 mph 100% 0.00 in 0 W/m2
02:29 63.7 °F 63.7 °F 29.84 in SW 0.3 mph 2 mph 100% 0.00 in 0 W/m2
02:34 63.7 °F 63.7 °F 29.84 in Calm     100% 0.00 in 0 W/m2
02:39 63.7 °F 63.7 °F 29.84 in Calm     100% 0.00 in 0 W/m2
02:44 63.6 °F 63.6 °F 29.84 in Calm     100% 0.00 in 0 W/m2
02:49 63.7 °F 63.7 °F 29.83 in Calm     100% 0.00 in 0 W/m2
02:54 63.7 °F 63.7 °F 29.83 in Calm     100% 0.00 in 0 W/m2
02:59 63.7 °F 63.7 °F 29.83 in Calm     100% 0.00 in 0 W/m2
03:04 63.7 °F 63.7 °F 29.83 in Calm     100% 0.00 in 0 W/m2
03:09 63.7 °F 63.7 °F 29.83 in Calm     100% 0.00 in 0 W/m2
03:14 63.7 °F 63.7 °F 29.83 in Calm     100% 0.00 in 0 W/m2
03:19 63.7 °F 63.7 °F 29.83 in Calm     100% 0.00 in 0 W/m2
03:24 63.7 °F 63.7 °F 29.83 in Calm     100% 0.00 in 0 W/m2
03:29 63.7 °F 63.7 °F 29.83 in Calm     100% 0.00 in 0 W/m2
03:34 63.7 °F 63.7 °F 29.83 in Calm     100% 0.00 in 0 W/m2
03:39 63.7 °F 63.7 °F 29.83 in Calm     100% 0.00 in 0 W/m2
03:44 63.7 °F 63.7 °F 29.83 in Calm     100% 0.00 in 0 W/m2
03:49 63.7 °F 63.7 °F 29.83 in Calm     100% 0.00 in 0 W/m2
03:54 63.6 °F 63.6 °F 29.83 in Calm     100% 0.00 in 0 W/m2
03:59 63.5 °F 63.5 °F 29.83 in SW 0.1 mph 1 mph 100% 0.00 in 0 W/m2
04:04 63.5 °F 63.5 °F 29.83 in Calm     100% 0.00 in 0 W/m2
04:09 63.5 °F 63.5 °F 29.83 in Calm     100% 0.00 in 0 W/m2
04:14 63.5 °F 63.5 °F 29.83 in Calm     100% 0.00 in 0 W/m2
04:19 63.5 °F 63.5 °F 29.83 in Calm     100% 0.00 in 0 W/m2
04:24 63.5 °F 63.5 °F 29.83 in Calm     100% 0.00 in 0 W/m2
04:29 63.5 °F 63.5 °F 29.83 in Calm     100% 0.00 in 0 W/m2
04:34 63.5 °F 63.5 °F 29.83 in SW 0.2 mph 1 mph 100% 0.00 in 0 W/m2
04:39 63.4 °F 63.4 °F 29.83 in SW 0.1 mph 1 mph 100% 0.00 in 0 W/m2
04:44 63.3 °F 63.3 °F 29.83 in SW 0.5 mph 2 mph 100% 0.00 in 0 W/m2
04:49 63.1 °F 63.1 °F 29.82 in SW 0.5 mph 2 mph 100% 0.00 in 0 W/m2
04:54 62.9 °F 62.9 °F 29.82 in Calm   1 mph 100% 0.00 in 0 W/m2
04:59 62.8 °F 62.8 °F 29.82 in Calm     100% 0.00 in 0 W/m2
05:04 62.8 °F 62.8 °F 29.82 in Calm     100% 0.00 in 0 W/m2
05:09 62.8 °F 62.8 °F 29.82 in SW 0.4 mph 1 mph 100% 0.00 in 0 W/m2
05:14 62.7 °F 62.7 °F 29.82 in Calm   1 mph 100% 0.00 in 0 W/m2
05:19 62.7 °F 62.7 °F 29.81 in Calm     100% 0.00 in 5 W/m2
05:24 62.7 °F 62.7 °F 29.81 in Calm     100% 0.00 in 7 W/m2
05:29 62.7 °F 62.7 °F 29.81 in Calm     100% 0.00 in 11 W/m2
05:34 62.7 °F 62.7 °F 29.81 in Calm     100% 0.00 in 14 W/m2
05:39 62.6 °F 62.6 °F 29.81 in Calm     100% 0.00 in 23 W/m2
05:44 62.5 °F 62.5 °F 29.81 in Calm     100% 0.00 in 25 W/m2
05:49 62.4 °F 62.4 °F 29.81 in Calm     100% 0.00 in 21 W/m2
05:54 62.5 °F 62.5 °F 29.81 in Calm     100% 0.00 in 21 W/m2
05:59 62.5 °F 62.5 °F 29.81 in Calm     100% 0.00 in 16 W/m2
06:04 62.7 °F 62.7 °F 29.81 in Calm     100% 0.00 in 18 W/m2
06:09 62.7 °F 62.7 °F 29.81 in Calm     100% 0.00 in 28 W/m2
06:14 62.7 °F 62.7 °F 29.82 in Calm     100% 0.00 in 33 W/m2
06:19 62.7 °F 62.7 °F 29.82 in Calm     100% 0.00 in 21 W/m2
06:24 62.8 °F 62.8 °F 29.82 in Calm     100% 0.00 in 21 W/m2
06:29 62.8 °F 62.8 °F 29.82 in SW 0.1 mph 1 mph 100% 0.00 in 16 W/m2
06:34 62.8 °F 62.8 °F 29.81 in Calm     100% 0.00 in 42 W/m2
06:39 62.9 °F 62.9 °F 29.81 in Calm     100% 0.00 in 55 W/m2
06:44 63 °F 63 °F 29.81 in Calm     100% 0.00 in 58 W/m2
06:49 63.1 °F 63.1 °F 29.81 in SW 0.1 mph 1 mph 100% 0.00 in 69 W/m2
06:54 63.2 °F 63.2 °F 29.81 in Calm     100% 0.00 in 63 W/m2
06:59 63.3 °F 63.3 °F 29.81 in SW 0.1 mph 2 mph 100% 0.00 in 79 W/m2
07:04 63.3 °F 63.3 °F 29.80 in SW 0.2 mph 2 mph 100% 0.00 in 84 W/m2
07:09 63.5 °F 63.5 °F 29.80 in SW 0.6 mph 2 mph 100% 0.00 in 102 W/m2
07:14 63.8 °F 63.8 °F 29.80 in SSW 1.1 mph 3 mph 100% 0.00 in 102 W/m2
07:19 64 °F 64 °F 29.80 in SSW 0.1 mph 2 mph 100% 0.00 in 62 W/m2
07:24 64 °F 64 °F 29.80 in Calm     100% 0.00 in 53 W/m2
07:29 64.1 °F 64.1 °F 29.80 in SSW 0.5 mph 2 mph 100% 0.00 in 48 W/m2
07:34 64.1 °F 64.1 °F 29.80 in SSW 0.4 mph 2 mph 100% 0.00 in 42 W/m2
07:39 64.1 °F 64.1 °F 29.80 in SSW 0.3 mph 2 mph 100% 0.00 in 21 W/m2
07:44 64.1 °F 64.1 °F 29.80 in Calm     100% 0.00 in 16 W/m2
07:49 64.1 °F 64.1 °F 29.80 in SSW 0.3 mph 2 mph 100% 0.00 in 21 W/m2
07:54 64.1 °F 64.1 °F 29.80 in SSW 0.1 mph 1 mph 100% 0.00 in 62 W/m2
07:59 64.1 °F 64.1 °F 29.80 in SSW 0.1 mph 2 mph 100% 0.00 in 102 W/m2
08:04 64.3 °F 64.3 °F 29.79 in SSW 0.7 mph 2 mph 100% 0.00 in 192 W/m2
08:09 64.5 °F 64.5 °F 29.79 in SW 0.7 mph 3 mph 100% 0.00 in 192 W/m2
08:14 65.2 °F 65.2 °F 29.79 in SW 1.4 mph 4 mph 100% 0.00 in 560 W/m2
08:19 66.1 °F 66.1 °F 29.79 in SSW 1.4 mph 6 mph 100% 0.00 in 568 W/m2
08:24 66.7 °F 66.6 °F 29.79 in SSW 2.7 mph 6 mph 99.7% 0.00 in 538 W/m2
08:29 67.3 °F 66.8 °F 29.79 in SSW 1.3 mph 6 mph 98.4% 0.00 in 429 W/m2
08:34 68.2 °F 67 °F 29.78 in SW 1.5 mph 5 mph 96% 0.00 in 567 W/m2
08:39 69 °F 66.7 °F 29.78 in SW 2.2 mph 7 mph 92.2% 0.00 in 486 W/m2
08:44 69.6 °F 66 °F 29.78 in SW 2.2 mph 7 mph 88.2% 0.00 in 677 W/m2
08:49 70.5 °F 65.7 °F 29.77 in SW 3.5 mph 8 mph 84.9% 0.00 in 642 W/m2
08:54 71.4 °F 65.9 °F 29.77 in WSW 1.7 mph 7 mph 82.5% 0.00 in 628 W/m2
08:59 72.2 °F 65.7 °F 29.77 in WSW 2.6 mph 8 mph 79.9% 0.00 in 651 W/m2
09:04 72.6 °F 65 °F 29.76 in SW 3.8 mph 12 mph 77.1% 0.00 in 836 W/m2
09:09 73.2 °F 64.9 °F 29.76 in SW 2.5 mph 9 mph 75.2% 0.00 in 848 W/m2
09:14 73.7 °F 64.5 °F 29.76 in SW 2.3 mph 6 mph 73.1% 0.00 in 241 W/m2
09:19 73.5 °F 64.6 °F 29.75 in SW 1.6 mph 6 mph 73.7% 0.00 in 178 W/m2
09:24 73.1 °F 64.6 °F 29.75 in SW 3.3 mph 8 mph 74.7% 0.00 in 171 W/m2
09:29 72.7 °F 64.6 °F 29.75 in WSW 1.5 mph 8 mph 75.7% 0.00 in 211 W/m2
09:34 72.5 °F 65.2 °F 29.75 in SW 1.6 mph 6 mph 78% 0.00 in 753 W/m2
09:39 73 °F 64.9 °F 29.75 in SW 3.9 mph 7 mph 75.8% 0.00 in 878 W/m2
09:44 73.9 °F 64.5 °F 29.75 in SW 2.3 mph 7 mph 72.4% 0.00 in 915 W/m2
09:49 74.5 °F 64 °F 29.75 in SW 2.5 mph 6 mph 69.8% 0.00 in 271 W/m2
09:54 74.6 °F 63.6 °F 29.75 in SSE 0.5 mph 6 mph 68.7% 0.00 in 271 W/m2
09:59 74.5 °F 63.9 °F 29.75 in SW 0.6 mph 4 mph 69.4% 0.00 in 74 W/m2
10:04 74.1 °F 64 °F 29.75 in SW 0.4 mph 2 mph 70.6% 0.00 in 55 W/m2
10:09 73.7 °F 64 °F 29.75 in Calm   2 mph 71.6% 0.00 in 88 W/m2
10:14 73.3 °F 64.3 °F 29.75 in SW 0.2 mph 2 mph 73.5% 0.00 in 88 W/m2
10:19 73 °F 64.5 °F 29.75 in SW 0.3 mph 2 mph 74.8% 0.00 in 188 W/m2
10:24 72.7 °F 64 °F 29.75 in SSW 0.8 mph 3 mph 74.2% 0.00 in 209 W/m2
10:29 73 °F 63.9 °F 29.75 in SSW 0.9 mph 3 mph 73.2% 0.00 in 389 W/m2
10:34 73.3 °F 64.2 °F 29.73 in SSW 2.8 mph 9 mph 73% 0.00 in 348 W/m2
10:39 73.5 °F 64 °F 29.73 in West 1.3 mph 5 mph 72% 0.00 in 435 W/m2
10:44 74.1 °F 64.2 °F 29.73 in ENE 0.6 mph 3 mph 71.2% 0.00 in 435 W/m2
10:49 74.7 °F 64 °F 29.73 in NW 1 mph 4 mph 69.3% 0.00 in 352 W/m2
10:54 75 °F 63.3 °F 29.73 in NNW 1.7 mph 5 mph 67% 0.00 in 380 W/m2
10:59 74.9 °F 63.3 °F 29.73 in SSW 1.4 mph 6 mph 67.2% 0.00 in 285 W/m2
11:04 74.7 °F 63.7 °F 29.73 in NNW 1 mph 5 mph 68.5% 0.00 in 296 W/m2
11:09 74.6 °F 63.4 °F 29.73 in NW 1.4 mph 5 mph 68.2% 0.00 in 146 W/m2
11:14 74.2 °F 63.4 °F 29.75 in WNW 1.2 mph 3 mph 68.9% 0.00 in 125 W/m2
11:19 73.6 °F 64.3 °F 29.75 in NW 1.5 mph 7 mph 72.8% 0.01 in 123 W/m2
11:24 72.6 °F 65.2 °F 29.75 in WNW 0.1 mph 4 mph 77.5% 0.01 in 134 W/m2
11:29 71.6 °F 65.6 °F 29.76 in SSW 0.5 mph 4 mph 81.3% 0.01 in 153 W/m2
11:34 70.8 °F 65.8 °F 29.76 in SW 0.5 mph 2 mph 84.1% 0.01 in 179 W/m2
11:39 70.3 °F 65.7 °F 29.76 in SSW 0.3 mph 1 mph 85.5% 0.01 in 174 W/m2
11:44 69.9 °F 65.5 °F 29.76 in South 0.8 mph 3 mph 85.8% 0.01 in 188 W/m2
11:49 69.6 °F 65.4 °F 29.76 in SW 1.3 mph 4 mph 86.5% 0.01 in 188 W/m2
11:54 69.5 °F 65.5 °F 29.76 in SSW 1.9 mph 6 mph 87% 0.01 in 246 W/m2
11:59 69.4 °F 65.7 °F 29.76 in SW 0.9 mph 3 mph 88% 0.01 in 213 W/m2
12:04 69.4 °F 65.7 °F 29.75 in SW 1.4 mph 5 mph 88% 0.01 in 162 W/m2
12:09 69.4 °F 65.7 °F 29.75 in South 0.5 mph 2 mph 88% 0.01 in 167 W/m2
12:14 69.5 °F 65.7 °F 29.75 in SSW 0.9 mph 6 mph 87.9% 0.01 in 185 W/m2
12:19 69.4 °F 65.1 °F 29.75 in WNW 0.8 mph 6 mph 86.2% 0.01 in 229 W/m2
12:24 69.7 °F 65.2 °F 29.75 in WSW 1.3 mph 5 mph 85.8% 0.01 in 201 W/m2
12:29 69.6 °F 64.9 °F 29.76 in East 1.2 mph 5 mph 85% 0.00 in 243 W/m2
12:34 69.6 °F 65 °F 29.76 in SSW 0.4 mph 4 mph 85.3% 0.00 in 294 W/m2
12:39 69.7 °F 65 °F 29.76 in WNW 0.8 mph 4 mph 85.1% 0.00 in 257 W/m2
12:44 69.6 °F 64.5 °F 29.77 in NNE 2.3 mph 11 mph 83.8% 0.02 in 211 W/m2
12:49 69 °F 64 °F 29.77 in NE 3.2 mph 14 mph 84% 0.03 in 151 W/m2
12:54 67.2 °F 62.8 °F 29.77 in NE 5.3 mph 14 mph 86% 0.03 in 195 W/m2
12:59 65.9 °F 62.1 °F 29.79 in NE 3.2 mph 11 mph 87.6% 0.03 in 148 W/m2
13:04 65 °F 61.8 °F 29.79 in NE 3.1 mph 10 mph 89.5% 0.03 in 280 W/m2
13:09 64.4 °F 61.5 °F 29.79 in NE 4 mph 12 mph 90.4% 0.03 in 301 W/m2
13:14 64.3 °F 61.4 °F 29.81 in NE 3.9 mph 8 mph 90.4% 0.03 in 292 W/m2
13:19 64.1 °F 61 °F 29.81 in ENE 4.8 mph 12 mph 89.7% 0.03 in 282 W/m2
13:24 64 °F 60.8 °F 29.81 in NE 4.9 mph 16 mph 89.4% 0.03 in 252 W/m2
13:29 63.7 °F 60.4 °F 29.82 in NE 3.5 mph 13 mph 89% 0.03 in 144 W/m2
13:34 63 °F 59.4 °F 29.82 in NE 3.9 mph 13 mph 88.1% 0.03 in 209 W/m2
13:39 62.3 °F 58.4 °F 29.82 in NE 3.8 mph 12 mph 87% 0.03 in 378 W/m2
13:44 62.3 °F 58.2 °F 29.84 in NE 4.3 mph 14 mph 86.3% 0.03 in 623 W/m2
13:49 62.6 °F 57.3 °F 29.84 in NE 6.2 mph 14 mph 82.9% 0.03 in 575 W/m2
13:54 62.7 °F 56.7 °F 29.84 in NNE 1.6 mph 14 mph 80.8% 0.03 in 385 W/m2
13:59 62.8 °F 56.6 °F 29.85 in NE 4 mph 16 mph 80.3% 0.00 in 459 W/m2
14:04 62.8 °F 56.3 °F 29.85 in NNE 2.5 mph 12 mph 79.2% 0.00 in 503 W/m2
14:09 63.2 °F 56.4 °F 29.85 in NE 4.5 mph 12 mph 78.3% 0.00 in 473 W/m2
14:14 63.8 °F 56 °F 29.86 in NNE 2.3 mph 8 mph 75.6% 0.00 in 473 W/m2
14:19 64.3 °F 55.3 °F 29.86 in NE 5.1 mph 12 mph 72.7% 0.00 in 473 W/m2
14:24 63.9 °F 54.3 °F 29.86 in NE 6.8 mph 19 mph 71% 0.00 in 303 W/m2
14:29 63.1 °F 54 °F 29.87 in NNE 2.3 mph 19 mph 72.2% 0.00 in 303 W/m2
14:34 62.7 °F 53.9 °F 29.87 in NE 4.1 mph 10 mph 73% 0.00 in 239 W/m2
14:39 61.8 °F 53.1 °F 29.87 in NE 5.7 mph 17 mph 73% 0.00 in 164 W/m2
14:44 61.2 °F 53.2 °F 29.89 in NE 2.4 mph 12 mph 74.9% 0.00 in 350 W/m2
14:49 61.1 °F 53.1 °F 29.89 in NE 3.6 mph 8 mph 75% 0.00 in 350 W/m2
14:54 61.1 °F 52.7 °F 29.89 in NE 3.3 mph 12 mph 73.8% 0.00 in 340 W/m2
14:59 61 °F 52.7 °F 29.89 in NE 3.3 mph 11 mph 74% 0.00 in 336 W/m2
15:04 61.1 °F 52.2 °F 29.89 in NNE 2.2 mph 10 mph 72.4% 0.00 in 336 W/m2
15:09 61.1 °F 51.9 °F 29.89 in NNE 2.2 mph 10 mph 71.7% 0.00 in 285 W/m2
15:14 61.2 °F 51.6 °F 29.89 in NNE 2.3 mph 7 mph 70.7% 0.00 in 299 W/m2
15:19 61.3 °F 51.4 °F 29.89 in NE 3.4 mph 10 mph 69.9% 0.00 in 296 W/m2
15:24 61.6 °F 51.4 °F 29.89 in NE 4.4 mph 13 mph 69.3% 0.00 in 230 W/m2
15:29 61.7 °F 51.3 °F 29.89 in NE 4.5 mph 13 mph 68.5% 0.00 in 202 W/m2
15:34 61.6 °F 50.7 °F 29.89 in NE 2.6 mph 8 mph 67.4% 0.00 in 246 W/m2
15:39 61.6 °F 51.1 °F 29.89 in NNE 1.4 mph 7 mph 68.4% 0.00 in 246 W/m2
15:44 61.6 °F 51.3 °F 29.89 in North 1.3 mph 7 mph 68.7% 0.00 in 252 W/m2
15:49 61.7 °F 51.3 °F 29.89 in NE 2.2 mph 7 mph 68.5% 0.00 in 183 W/m2
15:54 61.9 °F 51.4 °F 29.89 in NE 2.2 mph 11 mph 68.6% 0.00 in 188 W/m2
15:59 61.7 °F 50.6 °F 29.89 in NE 4.5 mph 11 mph 67% 0.00 in 165 W/m2
16:04 61.5 °F 50.4 °F 29.89 in NE 2.1 mph 11 mph 67% 0.00 in 165 W/m2
16:09 61.4 °F 50.5 °F 29.89 in NE 1.3 mph 6 mph 67.5% 0.00 in 164 W/m2
16:14 61.2 °F 50.8 °F 29.90 in NE 1 mph 4 mph 68.5% 0.00 in 174 W/m2
16:19 61.2 °F 50.6 °F 29.90 in NE 2.8 mph 8 mph 68.1% 0.00 in 201 W/m2
16:24 61.1 °F 50.2 °F 29.90 in NE 3.8 mph 12 mph 67.2% 0.00 in 209 W/m2
16:29 61.3 °F 50 °F 29.91 in NE 3.7 mph 12 mph 66.3% 0.00 in 223 W/m2
16:34 61.6 °F 49.4 °F 29.91 in NE 3 mph 13 mph 64.4% 0.00 in 222 W/m2
16:39 61.5 °F 49.2 °F 29.91 in ENE 4.1 mph 17 mph 64.1% 0.00 in 253 W/m2
16:44 61.2 °F 48.3 °F 29.91 in North 3.2 mph 17 mph 62.5% 0.00 in 290 W/m2
16:49 61.5 °F 48.4 °F 29.91 in NE 4.5 mph 11 mph 62.2% 0.00 in 241 W/m2
16:54 61.6 °F 48 °F 29.91 in NE 4.5 mph 13 mph 60.9% 0.00 in 227 W/m2
16:59 61.9 °F 48.1 °F 29.91 in NE 4.1 mph 10 mph 60.6% 0.00 in 227 W/m2
17:04 62 °F 47.8 °F 29.91 in ENE 6.1 mph 14 mph 59.7% 0.00 in 234 W/m2
17:09 62 °F 47.6 °F 29.91 in NE 2.9 mph 7 mph 59.1% 0.00 in 187 W/m2
17:14 62.2 °F 47.4 °F 29.92 in NE 4.7 mph 13 mph 58.2% 0.00 in 164 W/m2
17:19 62 °F 47 °F 29.92 in NE 2.1 mph 11 mph 58% 0.00 in 93 W/m2
17:24 61.8 °F 46.9 °F 29.92 in NNE 3 mph 14 mph 58% 0.00 in 100 W/m2
17:29 61.7 °F 46.9 °F 29.92 in NE 5.5 mph 16 mph 58.2% 0.00 in 86 W/m2
17:34 61.6 °F 46.3 °F 29.92 in NE 3.4 mph 11 mph 57.1% 0.00 in 121 W/m2
17:39 61.4 °F 45.8 °F 29.92 in ENE 3 mph 12 mph 56.4% 0.00 in 181 W/m2
17:44 61.6 °F 46.2 °F 29.93 in NE 2.1 mph 7 mph 56.8% 0.00 in 181 W/m2
17:49 61.8 °F 46.5 °F 29.93 in NNE 3.8 mph 19 mph 57.1% 0.00 in 97 W/m2
17:54 61.8 °F 45.6 °F 29.93 in NE 2.6 mph 19 mph 55.3% 0.00 in 67 W/m2
17:59 61.5 °F 45.7 °F 29.93 in NE 1.9 mph 7 mph 56.2% 0.00 in 63 W/m2
18:04 61.3 °F 46 °F 29.93 in NE 4.2 mph 12 mph 57.3% 0.00 in 60 W/m2
18:09 61.1 °F 45.5 °F 29.93 in NE 3.8 mph 11 mph 56.4% 0.00 in 58 W/m2
18:14 61.1 °F 45.3 °F 29.93 in NE 4.3 mph 11 mph 56% 0.00 in 79 W/m2
18:19 61 °F 45.2 °F 29.93 in NE 4.3 mph 13 mph 56% 0.00 in 60 W/m2
18:24 60.8 °F 44.5 °F 29.93 in ENE 1.2 mph 10 mph 54.8% 0.00 in 51 W/m2
18:29 60.6 °F 44.9 °F 29.95 in ENE 1.9 mph 7 mph 56.3% 0.00 in 51 W/m2
18:34 60.2 °F 44.6 °F 29.95 in NE 2.5 mph 7 mph 56.2% 0.00 in 48 W/m2
18:39 60 °F 44.5 °F 29.95 in NE 2 mph 7 mph 56.5% 0.00 in 48 W/m2
18:44 59.8 °F 44.7 °F 29.95 in NE 1.6 mph 7 mph 57.3% 0.00 in 48 W/m2
18:49 59.7 °F 44.8 °F 29.95 in ENE 2.8 mph 11 mph 57.8% 0.00 in 44 W/m2
18:54 59.6 °F 44.8 °F 29.95 in NE 1.3 mph 11 mph 58% 0.00 in 44 W/m2
18:59 59.5 °F 44.6 °F 29.97 in NNE 1.1 mph 5 mph 57.8% 0.00 in 46 W/m2
19:04 59.4 °F 44.6 °F 29.97 in ENE 1.2 mph 5 mph 57.9% 0.00 in 58 W/m2
19:09 59.2 °F 44.6 °F 29.97 in ENE 0.7 mph 5 mph 58.4% 0.00 in 37 W/m2
19:14 59 °F 44.5 °F 29.98 in NNE 1 mph 4 mph 58.5% 0.00 in 32 W/m2
19:19 58.8 °F 44.6 °F 29.98 in NNE 1 mph 5 mph 59.2% 0.00 in 32 W/m2
19:24 58.6 °F 44.3 °F 29.98 in ENE 1 mph 7 mph 58.9% 0.00 in 25 W/m2
19:29 58.4 °F 44.2 °F 29.98 in NE 1 mph 7 mph 59% 0.00 in 21 W/m2
19:34 58.3 °F 43.9 °F 29.98 in ENE 0.9 mph 4 mph 58.7% 0.00 in 18 W/m2
19:39 58.1 °F 43.6 °F 29.98 in ENE 0.9 mph 3 mph 58.5% 0.00 in 18 W/m2
19:44 57.9 °F 43.4 °F 30.00 in NE 2.1 mph 8 mph 58.4% 0.00 in 16 W/m2
19:49 57.7 °F 43.3 °F 30.00 in NE 2.3 mph 12 mph 58.4% 0.00 in 16 W/m2
19:54 57.7 °F 42.5 °F 30.00 in NE 1.3 mph 5 mph 56.7% 0.00 in 14 W/m2
19:59 57.6 °F 42.8 °F 30.01 in NE 0.9 mph 3 mph 57.6% 0.00 in 12 W/m2
20:04 57.4 °F 42.5 °F 30.01 in NE 1.7 mph 7 mph 57.4% 0.00 in 11 W/m2
20:09 57.1 °F 42.5 °F 30.01 in NNE 0.9 mph 5 mph 58% 0.00 in 9 W/m2
20:14 56.9 °F 42.4 °F 30.01 in NNE 0.4 mph 3 mph 58.2% 0.00 in 7 W/m2
20:19 56.8 °F 42.3 °F 30.01 in NE 0.5 mph 2 mph 58.3% 0.00 in 5 W/m2
20:24 56.5 °F 42.5 °F 30.01 in NNE 1 mph 6 mph 59.3% 0.00 in 5 W/m2
20:29 56.1 °F 42.5 °F 30.02 in North 0.3 mph 6 mph 60.2% 0.00 in 0 W/m2
20:34 55.9 °F 42.7 °F 30.02 in NE 0.2 mph 5 mph 61% 0.00 in 0 W/m2
20:39 55.6 °F 42.4 °F 30.02 in ENE 0.3 mph 5 mph 61.1% 0.00 in 0 W/m2
20:44 55.3 °F 42 °F 30.04 in ENE 0.9 mph 2 mph 60.8% 0.00 in 0 W/m2
20:49 55 °F 42.1 °F 30.04 in East 0.2 mph 1 mph 61.7% 0.00 in 0 W/m2
20:54 54.8 °F 41.6 °F 30.04 in NE 0.2 mph 1 mph 61% 0.00 in 0 W/m2
20:59 54.6 °F 41.4 °F 30.05 in Calm   1 mph 61% 0.00 in 0 W/m2
21:04 54.4 °F 41 °F 30.05 in NE 0.2 mph 2 mph 60.3% 0.00 in 0 W/m2
21:09 54.3 °F 41.4 °F 30.05 in North 0.3 mph 2 mph 61.6% 0.00 in 0 W/m2
21:14 54.1 °F 41.6 °F 30.06 in NNW 0.5 mph 2 mph 62.4% 0.00 in 0 W/m2
21:19 53.7 °F 41.9 °F 30.06 in NNW 0.5 mph 2 mph 64.1% 0.00 in 0 W/m2
21:24 53.3 °F 41.7 °F 30.06 in NNW 0.5 mph 2 mph 64.4% 0.00 in 0 W/m2
21:29 53 °F 41.3 °F 30.07 in North 0.4 mph 1 mph 64.4% 0.00 in 0 W/m2
21:34 52.8 °F 41.3 °F 30.07 in North 0.2 mph 2 mph 64.8% 0.00 in 0 W/m2
21:39 52.6 °F 41.2 °F 30.07 in North 0.4 mph 1 mph 65% 0.00 in 0 W/m2
21:44 52.4 °F 41 °F 30.07 in North 0.3 mph 1 mph 65% 0.00 in 0 W/m2
21:49 52.2 °F 41.1 °F 30.07 in Calm   1 mph 65.8% 0.00 in 0 W/m2
21:54 52 °F 41.2 °F 30.07 in Calm     66.5% 0.00 in 0 W/m2
21:59 51.7 °F 41.2 °F 30.08 in Calm   1 mph 67.3% 0.00 in 0 W/m2
22:04 51.4 °F 41.7 °F 30.08 in Calm     69.3% 0.00 in 0 W/m2
22:09 51 °F 41.9 °F 30.08 in Calm     71% 0.00 in 0 W/m2
22:14 50.6 °F 41.5 °F 30.09 in Calm     71% 0.00 in 0 W/m2
22:19 50.1 °F 41.5 °F 30.09 in Calm     72.1% 0.00 in 0 W/m2
22:24 49.8 °F 41.5 °F 30.09 in Calm     73% 0.00 in 0 W/m2
22:29 49.5 °F 41.6 °F 30.09 in Calm     74.1% 0.00 in 0 W/m2
22:34 49.1 °F 41.5 °F 30.09 in Calm     75% 0.00 in 0 W/m2
22:39 48.7 °F 41.4 °F 30.09 in Calm     75.7% 0.00 in 0 W/m2
22:44 48.4 °F 41.3 °F 30.10 in Calm     76.5% 0.00 in 0 W/m2
22:49 47.9 °F 41.4 °F 30.10 in Calm     77.8% 0.00 in 0 W/m2
22:54 47.5 °F 41.4 °F 30.10 in Calm     79.1% 0.00 in 0 W/m2
22:59 47.1 °F 41.3 °F 30.11 in Calm     80.2% 0.00 in 0 W/m2
23:04 46.9 °F 41.4 °F 30.11 in Calm     81.3% 0.00 in 0 W/m2
23:09 46.6 °F 41.6 °F 30.11 in Calm     82.7% 0.00 in 0 W/m2
23:14 46.4 °F 41.6 °F 30.12 in Calm     83.3% 0.00 in 0 W/m2
23:19 46.1 °F 41.6 °F 30.12 in Calm     84.2% 0.00 in 0 W/m2
23:24 45.8 °F 41.5 °F 30.12 in Calm     85% 0.00 in 0 W/m2
23:29 45.4 °F 41.3 °F 30.12 in Calm     85.3% 0.00 in 0 W/m2
23:34 45.1 °F 41.2 °F 30.12 in Calm     86% 0.00 in 0 W/m2
23:39 44.9 °F 41.2 °F 30.12 in Calm     86.6% 0.00 in 0 W/m2
23:44 44.8 °F 41.2 °F 30.13 in Calm     87.1% 0.00 in 0 W/m2
23:49 44.6 °F 41.3 °F 30.13 in Calm     88% 0.00 in 0 W/m2
23:54 44.3 °F 41 °F 30.13 in Calm     88% 0.00 in 0 W/m2
23:59 44.1 °F 40.7 °F 30.14 in Calm     88% 0.00 in 0 W/m2
Lisbon, New Hampshire, USA
Compliments of Weather Underground - 4 mb